Aeroporto :
LOGIN :

Iscrizione | Disclaimer

   EN    FR    IT 

 










Sommario :    VFR   VFR Marginale   IFR   IFR Intensivo   IFR Molto Intensivo
Visibilità : 
Base nubi : 
>= 8 km
>= 3000ft
5 / 8 km
1000 / 3000 ft
1500m / 5 km
500 / 1000 ft
800 / 1500m
200 / 500 ft
< 800m
< 200 ft
Simboli :   Temporali  Nebbia  Neve Forte  Precipitazioni Forti  Vento > 20 kt
SIGMETs :   Varie  Temporali  Ghiacco  Turbolenza  Onda orograficha  Ceneri Vulcaniche






- Altitudine del aeroporto : 147 ft
- Codice IATA : DUS


EDDL - Düsseldorf Int.

ULTIMO METAR :
  • 080220Z 14005KT 9999 -RA BKN035 13/12 Q1015 NOSIG

METARs OBSOLETI :
  • 080150Z 13004KT 9999 BKN036 13/12 Q1016 NOSIG
  • 080120Z 10003KT 080V140 9999 FEW020 13/12 Q1016 NOSIG
  • 080050Z 04004KT 9999 FEW020 13/12 Q1016 NOSIG
  • 080020Z VRB02KT 9999 FEW020 13/12 Q1017 NOSIG
  • 072350Z 08008KT 040V100 9999 -RA FEW020 13/12 Q1017 NOSIG

TAF TAF EDDL
Valido dal 08 a 00 ore il 09 a 06 ore UTC


072300Z 0800/0906 VRB03KT 9999 BKN030
BECMG 0802/0806 23008KT
PROB30
TEMPO 0803/0806 RA
TEMPO 0806/0818 BKN012
PROB40
TEMPO 0810/0814 4000 RADZ BKN007
BECMG 0819/0822 BKN013
TEMPO 0820/0902 VRB03KT
TEMPO 0823/0906 4500 -RADZ BKN007
PROB30
TEMPO 0903/0906 2000 DZRA BKN004



MetMap, La meteo Aeronautica in un colpo d'occhio ! - Copyright ORBIFLY Dicembre 2007 - Disclaimer

ORBIFLY MET'MAP TEAM :

Programmazione e sviluppo : Alexandra Zaïnal
Concezione : Baudouin d'Aumeries
Aiuto per la programmazione : Marc-Olivier Méhu
Supporto tecnico e logistico : Manuel Goepfert
Aiuto per la traduzione : Arnaldo La Scala

Contatto : metmap@orbifly.com




FONTI E CREDITI :

   NOAA